Time;durP1;ratioP1;P1;durP2;ratioP2;P2;SDS_P1;SDS_P2;PMS_P1;PMS_P2;Temp;Humidity;BMP_temperature;BMP_pressure;BME280_temperature;BME280_humidity;BME280_pressure;Samples;Min_cycle;Max_cycle;Signal;HPM_P1;HPM_P2
2021/03/12 00:01:52;;;;;;;21.52;14.35;;;153.90;1587.20;;;;;;4916646;29;20036;-74
2021/03/12 00:04:18;;;;;;;21.42;14.15;;;153.90;1587.20;;;;;;4917013;29;20032;-73
2021/03/12 00:06:44;;;;;;;22.60;12.70;;;153.80;1587.20;;;;;;4916953;29;20086;-74
2021/03/12 00:09:10;;;;;;;22.10;14.13;;;153.80;1587.20;;;;;;4915165;29;20054;-74
2021/03/12 00:11:35;;;;;;;25.98;14.55;;;153.70;1587.20;;;;;;4922406;29;20028;-74
2021/03/12 00:14:01;;;;;;;20.30;12.73;;;153.70;1612.80;;;;;;4917002;29;20063;-74
2021/03/12 00:16:27;;;;;;;21.67;14.65;;;153.70;1612.80;;;;;;4917319;29;20028;-74
2021/03/12 00:18:53;;;;;;;24.45;14.30;;;153.70;1612.80;;;;;;4915457;29;20028;-74
2021/03/12 00:21:18;;;;;;;18.75;13.18;;;153.70;1612.80;;;;;;4915936;29;20028;-74
2021/03/12 00:23:44;;;;;;;20.65;13.55;;;153.70;1612.80;;;;;;4914876;29;20028;-74
2021/03/12 00:26:11;;;;;;;20.58;12.75;;;153.70;1612.80;;;;;;4915935;29;20115;-74
2021/03/12 00:28:37;;;;;;;19.70;13.02;;;153.70;1587.20;;;;;;4914418;29;20036;-73
2021/03/12 00:31:05;;;;;;;21.83;13.95;;;153.70;1587.20;;;;;;4916511;29;20032;-74
2021/03/12 00:33:30;;;;;;;20.63;13.95;;;153.80;1587.20;;;;;;4916197;29;20016;-74
2021/03/12 00:35:56;;;;;;;18.83;12.65;;;153.80;1587.20;;;;;;4916547;29;20031;-74
2021/03/12 00:38:22;;;;;;;17.73;12.77;;;153.70;1587.20;;;;;;4916130;29;20030;-73
2021/03/12 00:40:52;;;;;;;16.23;12.23;;;153.80;1587.20;;;;;;4916098;29;20032;-74
2021/03/12 00:43:19;;;;;;;19.58;12.15;;;153.80;1587.20;;;;;;4916267;29;20404;-73
2021/03/12 00:45:48;;;;;;;17.77;12.32;;;153.90;1587.20;;;;;;4929735;29;20048;-73
2021/03/12 00:48:14;;;;;;;23.52;14.52;;;153.80;1587.20;;;;;;4914596;29;20032;-73
2021/03/12 00:50:41;;;;;;;22.05;12.55;;;153.80;1587.20;;;;;;4914557;29;20039;-73
2021/03/12 00:53:07;;;;;;;19.40;13.95;;;153.80;1587.20;;;;;;4914751;29;21038;-73
2021/03/12 00:55:34;;;;;;;20.83;13.00;;;153.80;1587.20;;;;;;4915586;29;20035;-73
2021/03/12 00:58:00;;;;;;;24.17;13.65;;;153.80;1612.80;;;;;;4916223;29;20028;-72
2021/03/12 01:00:27;;;;;;;21.05;12.95;;;153.80;1612.80;;;;;;4913150;29;20040;-73
2021/03/12 01:02:53;;;;;;;18.80;13.30;;;153.80;1612.80;;;;;;4914563;29;20047;-72
2021/03/12 01:05:21;;;;;;;20.27;13.70;;;153.80;1612.80;;;;;;4916619;29;20482;-73
2021/03/12 01:07:46;;;;;;;19.52;11.43;;;153.80;1612.80;;;;;;4918018;29;20024;-72
2021/03/12 01:10:14;;;;;;;16.92;12.23;;;153.70;1612.80;;;;;;4916528;29;20504;-72
2021/03/12 01:12:40;;;;;;;19.80;12.25;;;153.70;1587.20;;;;;;4932495;29;20037;-73
2021/03/12 01:15:09;;;;;;;16.95;11.23;;;153.70;1612.80;;;;;;4916857;29;20044;-73
2021/03/12 01:17:35;;;;;;;16.88;12.60;;;153.80;1587.20;;;;;;4915069;29;20028;-73
2021/03/12 01:20:06;;;;;;;16.60;12.05;;;153.70;1587.20;;;;;;4915504;29;20026;-73
2021/03/12 01:22:32;;;;;;;18.58;13.00;;;153.70;1587.20;;;;;;4928726;29;20024;-73
2021/03/12 01:24:58;;;;;;;16.20;11.93;;;153.70;1587.20;;;;;;4928027;29;20028;-73
2021/03/12 01:27:23;;;;;;;18.67;12.85;;;153.80;1587.20;;;;;;4927130;29;20028;-73
2021/03/12 01:29:49;;;;;;;18.40;12.35;;;153.80;1587.20;;;;;;4921221;29;20066;-72
2021/03/12 01:32:15;;;;;;;17.92;12.52;;;153.80;1587.20;;;;;;4934980;29;20024;-73
2021/03/12 01:34:41;;;;;;;17.45;12.02;;;153.70;1587.20;;;;;;4916102;29;20031;-73
2021/03/12 01:37:06;;;;;;;16.10;11.40;;;153.60;1587.20;;;;;;4916083;29;20481;-73
2021/03/12 01:39:32;;;;;;;17.35;11.07;;;153.70;1587.20;;;;;;4911271;29;20067;-73
2021/03/12 01:41:58;;;;;;;17.15;11.35;;;153.70;1587.20;;;;;;4912136;29;20035;-74
2021/03/12 01:44:24;;;;;;;21.15;12.85;;;153.70;1587.20;;;;;;4915071;29;20513;-76
2021/03/12 01:46:50;;;;;;;19.25;12.23;;;153.70;1587.20;;;;;;4915402;29;20036;-73
2021/03/12 01:49:16;;;;;;;16.83;11.00;;;153.80;1587.20;;;;;;4898050;29;20035;-73
2021/03/12 01:51:41;;;;;;;18.63;11.18;;;153.80;1587.20;;;;;;4916082;29;20122;-73
2021/03/12 01:54:07;;;;;;;18.67;11.25;;;153.80;1587.20;;;;;;4927593;29;20718;-73
2021/03/12 01:56:33;;;;;;;17.88;11.25;;;153.80;1587.20;;;;;;4914512;29;20067;-72
2021/03/12 01:58:59;;;;;;;17.33;12.95;;;153.80;1587.20;;;;;;4906484;29;20052;-73
2021/03/12 02:01:25;;;;;;;16.50;11.23;;;153.80;1587.20;;;;;;4921890;29;20036;-73
2021/03/12 02:03:50;;;;;;;17.88;12.30;;;153.80;1587.20;;;;;;4915532;29;20485;-73
2021/03/12 02:06:16;;;;;;;16.08;10.65;;;153.70;1587.20;;;;;;4915371;29;20070;-73
2021/03/12 02:08:42;;;;;;;17.60;11.40;;;153.80;1587.20;;;;;;4931420;29;20027;-74
2021/03/12 02:11:08;;;;;;;19.50;12.13;;;153.80;1587.20;;;;;;4920687;29;20034;-74
2021/03/12 02:13:55;;;;;;;16.13;12.02;;;153.80;1612.80;;;;;;4937956;29;20024;-73
2021/03/12 02:16:44;;;;;;;14.82;9.52;;;153.80;1638.40;;;;;;4919401;29;20032;-73
2021/03/12 02:19:14;;;;;;;17.50;11.52;;;153.90;1612.80;;;;;;4917969;29;20183;-73
2021/03/12 02:21:51;;;;;;;16.00;11.77;;;153.80;1612.80;;;;;;4894651;29;20033;-73
2021/03/12 02:24:31;;;;;;;15.73;11.73;;;153.80;1612.80;;;;;;4901662;29;20035;-73
2021/03/12 02:27:06;;;;;;;17.85;12.30;;;153.80;1612.80;;;;;;4918588;29;20031;-73
2021/03/12 02:29:34;;;;;;;15.63;11.45;;;153.80;1587.20;;;;;;4918329;29;20028;-74
2021/03/12 02:32:03;;;;;;;17.23;11.13;;;153.80;1612.80;;;;;;4918587;29;20036;-73
2021/03/12 02:34:33;;;;;;;19.23;12.20;;;153.80;1612.80;;;;;;4917989;29;20036;-74
2021/03/12 02:37:01;;;;;;;15.75;11.38;;;153.80;1612.80;;;;;;4900871;29;20032;-73
2021/03/12 02:39:29;;;;;;;20.65;12.23;;;153.70;1612.80;;;;;;4903310;29;20029;-73
2021/03/12 02:41:57;;;;;;;16.65;11.80;;;153.60;1612.80;;;;;;4908048;29;20039;-74
2021/03/12 02:44:24;;;;;;;15.98;11.57;;;153.70;1612.80;;;;;;4917694;29;20083;-74
2021/03/12 02:46:54;;;;;;;19.02;13.05;;;153.70;1612.80;;;;;;4916090;29;20099;-74
2021/03/12 02:49:21;;;;;;;13.38;9.98;;;153.70;1612.80;;;;;;4914875;29;20452;-73
2021/03/12 02:51:47;;;;;;;15.65;10.77;;;153.70;1612.80;;;;;;4914088;29;20111;-74
2021/03/12 02:54:13;;;;;;;17.30;11.90;;;153.70;1612.80;;;;;;4925045;29;20095;-74
2021/03/12 02:56:41;;;;;;;15.00;10.82;;;153.70;1612.80;;;;;;4926643;29;20528;-73
2021/03/12 02:59:07;;;;;;;17.27;12.32;;;153.70;1612.80;;;;;;4920035;29;20030;-73
2021/03/12 03:01:34;;;;;;;14.55;10.75;;;153.80;1612.80;;;;;;4929843;29;20040;-73
2021/03/12 03:04:00;;;;;;;18.67;12.10;;;153.70;1612.80;;;;;;4916823;29;20040;-73
2021/03/12 03:06:27;;;;;;;18.20;12.25;;;153.80;1612.80;;;;;;4922651;29;20082;-73
2021/03/12 03:08:53;;;;;;;15.75;11.40;;;153.70;1612.80;;;;;;4908795;29;20039;-73
2021/03/12 03:11:21;;;;;;;16.48;12.02;;;153.70;1612.80;;;;;;4931373;29;20024;-73
2021/03/12 03:13:48;;;;;;;18.60;11.45;;;153.70;1612.80;;;;;;4926908;29;20099;-73
2021/03/12 03:16:27;;;;;;;17.63;11.90;;;153.70;1612.80;;;;;;4923511;29;20376;-73
2021/03/12 03:18:54;;;;;;;23.00;12.98;;;153.80;1612.80;;;;;;4936507;29;20915;-74
2021/03/12 03:21:21;;;;;;;16.20;11.77;;;153.70;1612.80;;;;;;4905022;29;20043;-74
2021/03/12 03:23:47;;;;;;;18.27;12.90;;;153.70;1612.80;;;;;;4924878;29;20031;-74
2021/03/12 03:26:13;;;;;;;18.60;11.77;;;153.70;1612.80;;;;;;4928512;29;20027;-73
2021/03/12 03:28:39;;;;;;;16.83;11.55;;;153.70;1612.80;;;;;;4923821;29;20027;-73
2021/03/12 03:31:05;;;;;;;17.20;12.23;;;153.70;1612.80;;;;;;4925089;29;20433;-74
2021/03/12 03:33:32;;;;;;;17.83;12.15;;;153.60;1612.80;;;;;;4934465;29;20024;-73
2021/03/12 03:35:58;;;;;;;16.63;10.60;;;153.70;1612.80;;;;;;4906303;29;20028;-73
2021/03/12 03:38:25;;;;;;;19.40;11.40;;;153.70;1612.80;;;;;;4896888;29;20050;-73
2021/03/12 03:40:51;;;;;;;18.80;12.52;;;153.70;1612.80;;;;;;4917026;29;20046;-73
2021/03/12 03:43:22;;;;;;;16.95;11.95;;;153.70;1612.80;;;;;;4917503;29;20474;-74
2021/03/12 03:45:49;;;;;;;15.80;12.02;;;153.70;1638.40;;;;;;4917150;29;20044;-72
2021/03/12 03:48:16;;;;;;;18.08;13.05;;;153.60;1664.00;;;;;;4900175;29;20115;-73
2021/03/12 03:50:43;;;;;;;15.77;11.95;;;153.60;1689.60;;;;;;4899713;29;20044;-72
2021/03/12 03:53:10;;;;;;;18.30;11.35;;;153.60;1689.60;;;;;;4916809;29;20385;-73
2021/03/12 03:55:37;;;;;;;17.00;12.45;;;128.90;1689.60;;;;;;4914946;29;20052;-73
2021/03/12 03:58:03;;;;;;;18.95;11.18;;;128.90;1715.20;;;;;;4926639;29;20024;-72
2021/03/12 04:00:30;;;;;;;19.55;13.48;;;128.90;1715.20;;;;;;4916797;29;20784;-72
2021/03/12 04:02:57;;;;;;;14.80;11.00;;;128.80;1715.20;;;;;;4897116;29;20032;-72
2021/03/12 04:05:23;;;;;;;16.90;11.95;;;128.90;1715.20;;;;;;4897365;29;20028;-72
2021/03/12 04:07:50;;;;;;;20.50;11.93;;;128.80;1689.60;;;;;;4899535;29;20032;-72
2021/03/12 04:10:16;;;;;;;18.33;12.35;;;128.80;1715.20;;;;;;4916610;29;20032;-72
2021/03/12 04:12:44;;;;;;;19.30;12.88;;;128.90;1689.60;;;;;;4899781;29;20393;-71
2021/03/12 04:15:10;;;;;;;16.83;11.80;;;128.90;1689.60;;;;;;4896080;29;20042;-71
2021/03/12 04:17:37;;;;;;;16.88;11.65;;;128.90;1689.60;;;;;;4914382;29;20028;-71
2021/03/12 04:20:05;;;;;;;17.55;11.63;;;128.90;1689.60;;;;;;4919562;29;20028;-71
2021/03/12 04:22:32;;;;;;;17.95;12.30;;;128.90;1664.00;;;;;;4916722;29;20823;-71
2021/03/12 04:25:00;;;;;;;15.27;10.57;;;153.60;1664.00;;;;;;4909278;29;20102;-71
2021/03/12 04:27:27;;;;;;;17.15;11.65;;;153.60;1664.00;;;;;;4916150;29;20107;-71
2021/03/12 04:29:53;;;;;;;18.98;13.20;;;153.60;1664.00;;;;;;4914006;29;20020;-71
2021/03/12 04:32:19;;;;;;;17.08;11.32;;;153.60;1664.00;;;;;;4915902;29;20028;-71
2021/03/12 04:34:46;;;;;;;20.20;11.75;;;153.60;1664.00;;;;;;4916213;29;20031;-71
2021/03/12 04:37:13;;;;;;;19.77;11.88;;;153.60;1664.00;;;;;;4904922;29;20071;-71
2021/03/12 04:39:39;;;;;;;17.42;11.60;;;153.60;1664.00;;;;;;4916362;29;20103;-71
2021/03/12 04:42:06;;;;;;;25.42;13.07;;;128.90;1664.00;;;;;;4915802;29;20020;-71
2021/03/12 04:44:35;;;;;;;18.13;11.27;;;128.90;1689.60;;;;;;4905250;29;20053;-72
2021/03/12 04:47:02;;;;;;;17.25;12.90;;;153.60;1689.60;;;;;;4908269;29;20707;-71
2021/03/12 04:49:29;;;;;;;17.27;12.20;;;128.90;1689.60;;;;;;4908012;29;20075;-72
2021/03/12 04:51:55;;;;;;;21.13;13.13;;;128.90;1715.20;;;;;;4929386;29;20172;-71
2021/03/12 04:54:21;;;;;;;22.00;12.57;;;128.90;1715.20;;;;;;4914943;29;20103;-70
2021/03/12 04:56:47;;;;;;;15.35;11.40;;;153.60;1715.20;;;;;;4915088;29;20548;-72
2021/03/12 04:59:13;;;;;;;16.60;11.75;;;153.70;1715.20;;;;;;4913923;29;20036;-72
2021/03/12 05:01:42;;;;;;;17.95;12.75;;;153.60;1715.20;;;;;;4914574;29;20032;-72
2021/03/12 05:04:10;;;;;;;17.42;12.75;;;153.60;1715.20;;;;;;4915112;29;20040;-71
2021/03/12 05:06:38;;;;;;;17.17;12.32;;;153.60;1715.20;;;;;;4912053;29;20032;-72
2021/03/12 05:09:04;;;;;;;19.02;12.90;;;153.60;1715.20;;;;;;4915715;29;20024;-72
2021/03/12 05:11:30;;;;;;;17.25;12.10;;;128.90;1715.20;;;;;;4903533;29;20047;-72
2021/03/12 05:13:56;;;;;;;15.95;11.82;;;153.60;1715.20;;;;;;4912924;29;20441;-72
2021/03/12 05:16:22;;;;;;;21.63;13.27;;;128.90;1740.80;;;;;;4911672;29;20405;-72
2021/03/12 05:18:47;;;;;;;20.23;14.02;;;153.60;1766.40;;;;;;4915716;29;20107;-71
2021/03/12 05:21:14;;;;;;;19.92;14.05;;;153.60;1792.00;;;;;;4915422;29;20024;-72
2021/03/12 05:23:41;;;;;;;24.23;14.82;;;128.90;1817.60;;;;;;4915885;29;20024;-71
2021/03/12 05:26:07;;;;;;;19.55;13.07;;;128.90;1843.20;;;;;;4919999;29;20012;-72
2021/03/12 05:28:33;;;;;;;20.55;13.63;;;128.80;1817.60;;;;;;4934837;29;20031;-72
2021/03/12 05:30:58;;;;;;;17.25;13.43;;;128.80;1843.20;;;;;;4922349;29;20093;-71
2021/03/12 05:33:24;;;;;;;18.90;13.38;;;128.90;1843.20;;;;;;4914161;29;20115;-71
2021/03/12 05:35:50;;;;;;;21.88;14.73;;;128.90;1843.20;;;;;;4915360;29;20020;-71
2021/03/12 05:38:16;;;;;;;21.25;13.25;;;128.80;1817.60;;;;;;4915853;29;20031;-72
2021/03/12 05:40:42;;;;;;;19.05;13.05;;;128.90;1843.20;;;;;;4915416;29;20024;-71
2021/03/12 05:43:09;;;;;;;18.77;13.30;;;128.90;1817.60;;;;;;4917249;29;20478;-73
2021/03/12 05:45:36;;;;;;;20.40;13.23;;;128.90;1817.60;;;;;;4917746;29;20043;-72
2021/03/12 05:48:02;;;;;;;19.08;13.05;;;128.90;1817.60;;;;;;4918901;29;20028;-71
2021/03/12 05:50:28;;;;;;;17.55;12.70;;;153.60;1792.00;;;;;;4914074;29;20032;-71
2021/03/12 05:52:54;;;;;;;20.52;13.55;;;128.90;1817.60;;;;;;4917355;29;20031;-72
2021/03/12 05:55:20;;;;;;;20.33;13.65;;;153.60;1817.60;;;;;;4919373;29;20024;-72
2021/03/12 05:57:47;;;;;;;21.92;13.85;;;153.60;1817.60;;;;;;4933237;29;20064;-71
2021/03/12 06:00:14;;;;;;;21.35;14.38;;;153.60;1817.60;;;;;;4918023;29;20020;-72
2021/03/12 06:02:40;;;;;;;16.75;12.65;;;153.60;1817.60;;;;;;4918811;29;20372;-71
2021/03/12 06:05:08;;;;;;;18.20;12.98;;;153.60;1792.00;;;;;;4919208;29;20396;-71
2021/03/12 06:07:38;;;;;;;17.30;12.43;;;153.60;1792.00;;;;;;4918770;29;20016;-71
2021/03/12 06:10:05;;;;;;;23.33;14.35;;;153.70;1817.60;;;;;;4916506;29;20040;-71
2021/03/12 06:12:32;;;;;;;20.52;14.80;;;153.60;1792.00;;;;;;4919041;29;20024;-71
2021/03/12 06:15:05;;;;;;;24.60;14.60;;;153.60;1817.60;;;;;;4920682;29;20485;-71
2021/03/12 06:17:45;;;;;;;22.35;15.38;;;153.70;1817.60;;;;;;4919953;29;20024;-71
2021/03/12 06:20:19;;;;;;;26.77;16.17;;;153.70;1843.20;;;;;;4907353;29;20104;-71
2021/03/12 06:22:48;;;;;;;24.30;14.20;;;153.80;1843.20;;;;;;4911880;29;20032;-72
2021/03/12 06:25:15;;;;;;;23.45;15.27;;;153.80;1817.60;;;;;;4918418;29;20374;-71
2021/03/12 06:27:41;;;;;;;23.33;14.27;;;153.80;1843.20;;;;;;4911191;29;20032;-71
2021/03/12 06:30:07;;;;;;;18.23;13.20;;;153.90;1843.20;;;;;;4911500;29;20020;-71
2021/03/12 06:32:47;;;;;;;21.55;14.00;;;154.00;1843.20;;;;;;4918095;29;20040;-72
2021/03/12 06:35:16;;;;;;;21.40;13.13;;;154.10;1817.60;;;;;;4923899;29;20031;-71
2021/03/12 06:37:46;;;;;;;18.58;14.00;;;154.20;1817.60;;;;;;4917511;29;20029;-71
2021/03/12 06:40:16;;;;;;;19.50;13.55;;;154.20;1792.00;;;;;;4917723;29;20023;-71
2021/03/12 06:43:01;;;;;;;22.90;15.55;;;154.30;1792.00;;;;;;4916345;29;20031;-71
2021/03/12 06:45:32;;;;;;;19.33;15.00;;;154.20;1792.00;;;;;;4916414;29;20064;-71
2021/03/12 06:48:22;;;;;;;19.42;14.18;;;154.10;1817.60;;;;;;4900946;29;20039;-71
2021/03/12 06:50:49;;;;;;;21.55;14.90;;;154.30;1817.60;;;;;;4898086;29;20029;-71
2021/03/12 06:53:38;;;;;;;20.42;14.50;;;154.20;1792.00;;;;;;4898814;29;20033;-71
2021/03/12 06:56:10;;;;;;;21.48;14.43;;;154.20;1817.60;;;;;;4896845;29;20454;-72
2021/03/12 06:58:37;;;;;;;21.85;14.43;;;154.20;1843.20;;;;;;4917929;29;20020;-71
2021/03/12 07:01:21;;;;;;;20.65;14.68;;;154.30;1843.20;;;;;;4917199;29;20060;-71
2021/03/12 07:03:47;;;;;;;20.52;14.18;;;154.30;1843.20;;;;;;4913603;29;20024;-72
2021/03/12 07:06:22;;;;;;;21.75;15.70;;;154.50;1843.20;;;;;;4919410;29;20473;-72
2021/03/12 07:53:53;;;;;;;22.20;16.15;;;179.40;1843.20;;;;;;5112121;27;20429;-71
2021/03/12 07:56:44;;;;;;;25.45;17.17;;;205.50;1689.60;;;;;;5101106;28;20028;-72
2021/03/12 07:59:09;;;;;;;22.08;15.13;;;205.50;1689.60;;;;;;5102617;28;20020;-72
2021/03/12 08:02:04;;;;;;;22.63;15.38;;;205.30;1715.20;;;;;;5092181;28;20377;-72
2021/03/12 08:04:35;;;;;;;20.90;15.43;;;205.40;1689.60;;;;;;5042344;28;20086;-72
2021/03/12 08:07:20;;;;;;;29.50;18.13;;;205.40;1715.20;;;;;;5052048;28;20419;-72
2021/03/12 08:09:48;;;;;;;27.80;17.67;;;205.40;1740.80;;;;;;5063057;28;20534;-74
2021/03/12 08:12:33;;;;;;;19.90;15.95;;;205.60;1740.80;;;;;;5047778;28;20124;-74
2021/03/12 08:15:30;;;;;;;22.02;16.00;;;205.50;1740.80;;;;;;5064419;28;20033;-74
2021/03/12 08:17:58;;;;;;;29.95;18.45;;;230.50;1715.20;;;;;;5061830;28;20028;-74
2021/03/12 08:20:30;;;;;;;26.00;18.30;;;230.80;1715.20;;;;;;5061840;28;20029;-75
2021/03/12 08:22:57;;;;;;;23.92;16.50;;;230.70;1689.60;;;;;;5046872;28;20025;-74
2021/03/12 08:25:32;;;;;;;25.92;16.70;;;230.70;1638.40;;;;;;5064168;28;20025;-74
2021/03/12 08:28:02;;;;;;;29.35;18.45;;;231.10;1612.80;;;;;;5061201;28;20044;-74
2021/03/12 08:30:27;;;;;;;30.10;18.45;;;231.20;1587.20;;;;;;5060266;28;20017;-74
2021/03/12 08:32:55;;;;;;;28.05;17.33;;;231.20;1587.20;;;;;;5062142;28;20033;-75
2021/03/12 08:35:33;;;;;;;26.20;17.20;;;256.00;1561.60;;;;;;5064982;28;20052;-75
2021/03/12 08:38:00;;;;;;;22.45;16.58;;;256.00;1561.60;;;;;;5055543;28;20037;-75
2021/03/12 08:40:28;;;;;;;26.40;17.38;;;256.40;1510.40;;;;;;5077630;28;20043;-75
2021/03/12 08:43:08;;;;;;;25.27;16.77;;;231.30;1561.60;;;;;;5108018;28;20119;-75
2021/03/12 08:45:45;;;;;;;24.08;15.80;;;256.20;1536.00;;;;;;5107962;28;20375;-75
2021/03/12 08:48:16;;;;;;;24.42;16.52;;;256.40;1510.40;;;;;;5107088;28;20420;-75
2021/03/12 08:50:56;;;;;;;30.63;17.80;;;256.50;1510.40;;;;;;5107596;28;20114;-75
2021/03/12 08:53:27;;;;;;;27.00;17.65;;;256.80;1510.40;;;;;;5093783;28;20150;-75
2021/03/12 08:55:55;;;;;;;21.42;16.48;;;281.80;1484.80;;;;;;5082468;28;20081;-75
2021/03/12 08:58:25;;;;;;;24.40;16.17;;;282.20;1459.20;;;;;;5092823;28;20119;-75
2021/03/12 09:00:53;;;;;;;21.38;15.88;;;282.30;1433.60;;;;;;5090975;28;20107;-75
2021/03/12 09:03:27;;;;;;;26.05;18.10;;;307.20;1433.60;;;;;;5094296;28;20020;-75
2021/03/12 09:06:00;;;;;;;30.70;18.92;;;282.40;1433.60;;;;;;5093979;28;20020;-75
2021/03/12 09:08:28;;;;;;;23.55;16.88;;;282.20;1459.20;;;;;;5092678;28;20048;-75
2021/03/12 09:10:55;;;;;;;22.30;16.98;;;282.20;1459.20;;;;;;5087670;28;20024;-75
2021/03/12 09:13:26;;;;;;;35.78;18.20;;;282.20;1484.80;;;;;;5093871;28;20028;-75
2021/03/12 09:15:52;;;;;;;25.02;17.92;;;282.40;1459.20;;;;;;5089686;28;20016;-75
2021/03/12 09:18:20;;;;;;;25.23;16.52;;;282.50;1459.20;;;;;;5091927;28;20030;-75
2021/03/12 09:20:57;;;;;;;31.67;18.63;;;282.50;1484.80;;;;;;5093386;28;20050;-76
2021/03/12 09:23:52;;;;;;;23.95;16.13;;;307.50;1459.20;;;;;;5093821;28;20772;-75
2021/03/12 09:26:24;;;;;;;31.95;17.30;;;307.50;1459.20;;;;;;5089954;28;20067;-75
2021/03/12 09:28:52;;;;;;;24.73;18.30;;;307.40;1510.40;;;;;;5092239;28;20686;-75
2021/03/12 09:31:20;;;;;;;26.40;19.85;;;307.70;1484.80;;;;;;5093825;28;20498;-75
2021/03/12 09:33:50;;;;;;;22.45;18.63;;;307.80;1484.80;;;;;;5091160;28;20179;-75
2021/03/12 09:36:38;;;;;;;29.13;20.92;;;307.80;1510.40;;;;;;5093658;28;20026;-74
2021/03/12 09:39:19;;;;;;;29.92;19.70;;;307.80;1536.00;;;;;;5091132;28;20028;-74
2021/03/12 09:41:51;;;;;;;31.05;21.27;;;307.80;1561.60;;;;;;5090678;28;20050;-75
2021/03/12 09:44:17;;;;;;;24.95;19.90;;;308.10;1561.60;;;;;;5093416;28;20020;-74
2021/03/12 09:46:54;;;;;;;26.63;20.08;;;332.90;1561.60;;;;;;5093782;28;20030;-75
2021/03/12 09:49:24;;;;;;;27.13;19.85;;;333.20;1587.20;;;;;;5093333;28;20545;-75
2021/03/12 09:51:53;;;;;;;27.30;18.42;;;333.40;1536.00;;;;;;5093453;28;20048;-74
2021/03/12 09:54:20;;;;;;;21.48;17.83;;;333.70;1484.80;;;;;;5092779;28;20027;-75
2021/03/12 09:56:51;;;;;;;25.65;17.27;;;358.70;1459.20;;;;;;5091836;28;20024;-74
2021/03/12 09:59:19;;;;;;;20.90;15.13;;;358.80;1459.20;;;;;;5090632;28;20119;-75
2021/03/12 10:01:48;;;;;;;23.05;14.77;;;358.50;1459.20;;;;;;5092883;28;20028;-75
2021/03/12 10:04:29;;;;;;;28.42;14.77;;;358.90;1433.60;;;;;;5089920;28;20153;-75
2021/03/12 10:06:59;;;;;;;21.60;14.25;;;359.20;1408.00;;;;;;5088986;28;20054;-74
2021/03/12 10:09:25;;;;;;;22.02;15.88;;;384.30;1382.40;;;;;;5089050;28;20119;-75
2021/03/12 10:11:52;;;;;;;20.88;15.15;;;384.50;1408.00;;;;;;5082823;28;20431;-75
2021/03/12 10:14:33;;;;;;;20.80;14.27;;;384.60;1408.00;;;;;;5075743;28;20028;-75
2021/03/12 10:17:09;;;;;;;13.68;10.90;;;384.30;1459.20;;;;;;5083002;28;20020;-75
2021/03/12 10:19:45;;;;;;;14.10;10.65;;;384.00;1484.80;;;;;;5088259;28;20374;-75
2021/03/12 10:22:26;;;;;;;14.57;9.93;;;384.00;1484.80;;;;;;5075280;28;20759;-75
2021/03/12 10:25:05;;;;;;;19.05;11.18;;;359.10;1510.40;;;;;;5083383;28;20040;-75
2021/03/12 10:27:37;;;;;;;15.80;12.43;;;358.60;1536.00;;;;;;5087179;28;20024;-75
2021/03/12 10:30:12;;;;;;;19.83;12.30;;;358.40;1587.20;;;;;;5074069;28;20040;-75
2021/03/12 10:32:42;;;;;;;16.65;11.77;;;358.40;1612.80;;;;;;5085155;28;20020;-75
2021/03/12 10:35:35;;;;;;;17.50;12.63;;;333.70;1638.40;;;;;;5090837;28;20395;-75
2021/03/12 10:38:22;;;;;;;20.33;13.88;;;333.70;1664.00;;;;;;5047526;28;20041;-75
2021/03/12 10:40:54;;;;;;;16.70;12.90;;;333.70;1689.60;;;;;;5049497;28;20052;-74
2021/03/12 10:43:19;;;;;;;17.95;13.23;;;333.60;1715.20;;;;;;5044398;28;20034;-74
2021/03/12 10:45:48;;;;;;;24.95;15.10;;;333.50;1715.20;;;;;;5032829;28;20036;-74
2021/03/12 10:48:15;;;;;;;23.00;15.43;;;333.40;1740.80;;;;;;5033145;28;20514;-74
2021/03/12 10:50:41;;;;;;;21.80;16.70;;;333.20;1792.00;;;;;;5047785;28;20132;-74
2021/03/12 10:53:12;;;;;;;21.08;16.30;;;333.20;1792.00;;;;;;5030919;28;20041;-74
2021/03/12 10:55:44;;;;;;;18.98;14.63;;;333.10;1843.20;;;;;;5046713;28;20485;-75
2021/03/12 10:58:31;;;;;;;21.88;14.70;;;333.00;1868.80;;;;;;5032368;28;20035;-75
2021/03/12 11:01:18;;;;;;;;;;;332.90;1894.40;;;;;;5050886;28;20485;-75
2021/03/12 11:03:45;;;;;;;21.60;17.02;;;332.80;1971.20;;;;;;5031365;28;19912;-75
2021/03/12 11:06:13;;;;;;;30.55;20.48;;;307.90;1945.60;;;;;;5029377;28;20032;-75
2021/03/12 11:08:38;;;;;;;32.60;23.52;;;307.90;1996.80;;;;;;5048921;28;20069;-75
2021/03/12 11:11:07;;;;;;;45.33;27.08;;;307.90;2048.00;;;;;;5044239;28;20067;-75
2021/03/12 11:13:34;;;;;;;35.63;25.13;;;307.90;2048.00;;;;;;5028404;28;20032;-76
2021/03/12 11:16:00;;;;;;;25.45;19.40;;;332.80;2048.00;;;;;;5085407;28;20035;-76
2021/03/12 11:18:28;;;;;;;24.02;18.60;;;332.90;2048.00;;;;;;5090974;28;20035;-75
2021/03/12 11:20:55;;;;;;;23.98;18.48;;;333.10;2048.00;;;;;;5091561;28;20084;-76
2021/03/12 11:23:21;;;;;;;22.40;17.80;;;333.20;2048.00;;;;;;5090165;28;20103;-75
2021/03/12 11:25:46;;;;;;;23.63;16.95;;;333.30;1971.20;;;;;;5091574;28;20133;-76
2021/03/12 11:28:12;;;;;;;25.05;20.42;;;333.30;1996.80;;;;;;5087581;28;20115;-75
2021/03/12 11:30:38;;;;;;;24.05;18.13;;;333.50;2048.00;;;;;;5089939;28;20024;-75
2021/03/12 11:33:04;;;;;;;28.40;19.98;;;333.30;2022.40;;;;;;5090661;28;20034;-75
2021/03/12 11:35:30;;;;;;;37.65;26.95;;;333.50;1996.80;;;;;;5091771;28;20030;-75
2021/03/12 11:37:57;;;;;;;32.60;25.20;;;333.20;2073.60;;;;;;5091288;28;20032;-75
2021/03/12 11:40:22;;;;;;;33.70;23.92;;;333.20;2022.40;;;;;;5090583;28;20029;-75
2021/03/12 11:42:48;;;;;;;27.52;20.98;;;333.00;2048.00;;;;;;5088313;28;20472;-75
2021/03/12 11:45:16;;;;;;;32.15;22.30;;;332.80;2073.60;;;;;;5088091;28;20046;-74
2021/03/12 11:47:43;;;;;;;29.17;19.45;;;308.00;2099.20;;;;;;5121042;27;20423;-74
2021/03/12 11:50:14;;;;;;;28.20;20.65;;;308.00;2048.00;;;;;;5087605;28;20099;-75
2021/03/12 11:52:40;;;;;;;37.88;28.10;;;308.00;2048.00;;;;;;5079758;28;20407;-74
2021/03/12 11:55:08;;;;;;;35.20;27.60;;;308.00;2099.20;;;;;;5090771;28;20058;-76
2021/03/12 11:57:36;;;;;;;39.17;26.73;;;332.80;2124.80;;;;;;5091432;28;20407;-75
2021/03/12 12:00:05;;;;;;;31.15;22.48;;;332.90;2099.20;;;;;;5090075;28;20028;-75
2021/03/12 12:02:31;;;;;;;26.33;19.42;;;308.00;2073.60;;;;;;5091423;28;20035;-75
2021/03/12 12:04:56;;;;;;;35.97;23.25;;;332.80;2124.80;;;;;;5091131;28;20028;-75
2021/03/12 12:07:22;;;;;;;29.13;19.35;;;308.00;2176.00;;;;;;5085285;28;20059;-75
2021/03/12 12:09:48;;;;;;;21.15;17.33;;;332.80;2176.00;;;;;;5090478;28;20028;-76
2021/03/12 12:12:14;;;;;;;25.23;19.45;;;333.10;2124.80;;;;;;5090493;28;20032;-75
2021/03/12 12:14:40;;;;;;;22.65;16.92;;;333.30;2099.20;;;;;;5091225;28;20123;-75
2021/03/12 12:17:07;;;;;;;19.67;14.55;;;333.30;2073.60;;;;;;5090936;28;20023;-75
2021/03/12 12:19:34;;;;;;;17.50;13.95;;;333.30;2073.60;;;;;;5091312;28;20068;-75
2021/03/12 12:22:00;;;;;;;20.40;15.43;;;333.20;2073.60;;;;;;5090323;28;20048;-75
2021/03/12 12:24:26;;;;;;;20.15;14.65;;;333.30;2073.60;;;;;;5090631;28;20035;-75
2021/03/12 12:26:52;;;;;;;22.35;16.08;;;333.20;2073.60;;;;;;5080661;28;20107;-74
2021/03/12 12:29:19;;;;;;;23.08;17.40;;;333.00;2048.00;;;;;;5087620;28;20119;-74
2021/03/12 12:31:44;;;;;;;17.67;12.57;;;332.90;2099.20;;;;;;5091015;28;20032;-74
2021/03/12 12:34:10;;;;;;;21.45;16.67;;;332.80;2048.00;;;;;;5091471;28;20383;-74
2021/03/12 12:36:36;;;;;;;25.92;19.55;;;307.80;2099.20;;;;;;5093842;28;20039;-75
2021/03/12 12:39:06;;;;;;;28.20;18.67;;;307.50;2176.00;;;;;;5089803;28;20036;-74
2021/03/12 12:41:32;;;;;;;27.23;18.65;;;307.40;2176.00;;;;;;5091178;28;20020;-74
2021/03/12 12:43:58;;;;;;;22.33;17.58;;;307.40;2201.60;;;;;;5091560;28;20036;-74
2021/03/12 12:46:24;;;;;;;25.98;18.33;;;307.20;2176.00;;;;;;5092036;28;20124;-74
2021/03/12 12:48:50;;;;;;;21.02;14.35;;;307.20;2201.60;;;;;;5093741;28;20136;-74
2021/03/12 12:51:16;;;;;;;21.00;16.50;;;282.50;2124.80;;;;;;5093959;28;20031;-75
2021/03/12 12:53:42;;;;;;;17.88;12.27;;;282.50;2124.80;;;;;;5094495;28;20028;-74